This is the latest recevied weather packets stored in our database for station/object OE-11099. If no packets are shown the sender has not sent any weather packets the latest 10 day(s).
| Time | Temp. | Humidity | Pressure | Rain* | Wind** | Luminosity | Snow |
|---|---|---|---|---|---|---|---|
| 1787959505 | 15.56° C | 84% | 1019.4 hPa | 0 mm | - | 0 W/m² | - |
| 1787958906 | 15.56° C | 85% | 1019.4 hPa | 0 mm | - | 0 W/m² | - |
| 1787958306 | 15° C | 87% | 1019.6 hPa | 0 mm | - | 0 W/m² | - |
| 1787957706 | 15° C | 87% | 1019.5 hPa | 0.25 mm | - | 0 W/m² | - |
| 1787956879 | 15.56° C | 86% | 1019.5 hPa | 0.25 mm | - | 0 W/m² | - |
| 1787956506 | 15° C | 86% | 1019.8 hPa | 0.51 mm | - | 0 W/m² | - |
| 1787955906 | 15° C | 90% | 1019.7 hPa | 1.27 mm | - | 0 W/m² | - |
| 1787955079 | 15° C | 89% | 1019.8 hPa | 1.78 mm | - | 0 W/m² | - |
| 1787954705 | 15° C | 90% | 1019.8 hPa | 2.54 mm | - | 0 W/m² | - |
| 1787954106 | 15° C | 92% | 1019.8 hPa | 3.56 mm | - | 0 W/m² | - |
| 1787953279 | 15° C | 92% | 1019.5 hPa | 4.32 mm | - | 0 W/m² | - |
| 1787952906 | 15.56° C | 94% | 1019.6 hPa | 5.59 mm | - | 0 W/m² | - |
| 1787952306 | 15.56° C | 94% | 1019.4 hPa | 6.1 mm | - | 0 W/m² | - |
| 1787951479 | 15.56° C | 93% | 1019.6 hPa | 5.59 mm | - | 0 W/m² | - |
| 1787951106 | 15.56° C | 95% | 1019.3 hPa | 6.35 mm | - | 0 W/m² | - |
| 1787950506 | 16.11° C | 96% | 1019.2 hPa | 5.59 mm | - | 0 W/m² | - |
| 1787949679 | 16.11° C | 95% | 1019.1 hPa | 4.57 mm | - | 0 W/m² | - |
| 1787949306 | 16.11° C | 94% | 1019 hPa | 3.81 mm | - | 0 W/m² | - |
| 1787948706 | 16.11° C | 94% | 1019.1 hPa | 2.29 mm | - | 0 W/m² | - |
| 1787947879 | 16.11° C | 93% | 1019 hPa | 1.52 mm | - | 0 W/m² | - |
| 1787947505 | 16.11° C | 93% | 1018.2 hPa | 1.52 mm | - | 0 W/m² | - |
| 1787946906 | 16.11° C | 90% | 1018.4 hPa | 0.51 mm | - | 0 W/m² | - |
| 1787946080 | 16.11° C | 92% | 1017.9 hPa | 0.76 mm | - | 0 W/m² | - |
| 1787945706 | 16.67° C | 92% | 1017.9 hPa | 0.76 mm | - | 0 W/m² | - |
| 1787945105 | 16.67° C | 92% | 1017.8 hPa | 0.76 mm | - | 0 W/m² | - |
* Rain latest hour (hover to see other rain measurements)
** Current wind speed in m/s (hover to see current wind gust speed)